Impacts METAR Board INFO
IDs:

KIAH - Houston/Bush Intl, TX, US

Updated at: 0118 UTC 19 Nov 2017
Potential Impact None Slight Moderate High
Time18/13Z 18/14Z 18/15Z 18/16Z 18/17Z 18/18Z 18/19Z 18/20Z 18/21Z 18/22Z 18/23Z 19/00Z 19/01Z
VIS10 10 10 10 10 10 10 10 10 10 10 10 10
CIG18 28 28 29 21 39 -- 60 60 70 -- -- --
CoverBKNBKNOVCOVCOVCBKNSCTBKNBKNBKNFEWFEWFEW
FltCatMVFRMVFRMVFRMVFRMVFRVFRVFRVFRVFRVFRVFRVFRVFR
WX--------------------------
WDir190220220220250270250280290340350340350
WSpd4 7 10 11 11 15 13 8 7 15 17 20 15
WGst-- -- 16 20 15 24 19 -- -- 22 27 25 21
Raw hourly METARs
KIAH 181253Z 19004KT 10SM BKN018 BKN250 22/21 A2985 RMK AO2 SLP106 T02170206
KIAH 181353Z 22007KT 10SM SCT012 SCT021 BKN028 BKN250 23/21 A2986 RMK AO2 SLP112 T02280211
KIAH 181453Z 22010G16KT 10SM SCT018 OVC028 24/21 A2986 RMK AO2 SLP112 T02390211 51010
KIAH 181553Z 22011G20KT 10SM SCT019 OVC029 25/21 A2986 RMK AO2 SLP110 T02500211
KIAH 181653Z 25011G15KT 10SM BKN021 OVC032 26/21 A2988 RMK AO2 SLP116 T02610211
KIAH 181753Z 27015G24KT 10SM SCT028 BKN039 27/21 A2987 RMK AO2 SLP116 T02720206 10278 20217 53004
KIAH 181853Z 25013G19KT 10SM FEW028 SCT039 SCT050 29/21 A2986 RMK AO2 SLP110 T02890206
KIAH 181953Z 28008KT 10SM FEW037 SCT045 BKN060 29/20 A2985 RMK AO2 SLP107 T02890200
KIAH 182053Z 29007KT 10SM FEW038 SCT046 BKN060 28/19 A2985 RMK AO2 SLP106 T02830194 56009
KIAH 182153Z 34015G22KT 10SM SCT040 BKN070 27/14 A2988 RMK AO2 PK WND 34027/2124 SLP119 FROPA T02670139
KIAH 182253Z 35017G27KT 10SM FEW040 FEW075 24/08 A2993 RMK AO2 PK WND 35027/2249 SLP135 T02440083
KIAH 182353Z 34020G25KT 10SM FEW050 FEW250 22/08 A2998 RMK AO2 PK WND 33031/2328 SLP151 T02220078 10289 20222 53045
KIAH 190053Z 35015G21KT 10SM FEW250 21/07 A3002 RMK AO2 PK WND 35028/0015 SLP166 T02060072